Time;durP1;ratioP1;P1;durP2;ratioP2;P2;SDS_P1;SDS_P2;PMS_P1;PMS_P2;Temp;Humidity;BMP_temperature;BMP_pressure;BME280_temperature;BME280_humidity;BME280_pressure;Samples;Min_cycle;Max_cycle;Signal;HPM_P1;HPM_P2
2021/03/23 00:00:43;;;;;;;9.05;6.57;;;3.00;99.90;;;;;;5093695;28;20024;-76
2021/03/23 00:03:16;;;;;;;7.57;5.75;;;3.20;99.90;;;;;;5093309;28;20028;-75
2021/03/23 00:05:43;;;;;;;7.28;6.15;;;3.00;99.90;;;;;;5093230;28;20032;-76
2021/03/23 00:08:21;;;;;;;7.40;6.13;;;3.10;99.90;;;;;;5093482;28;20020;-76
2021/03/23 00:10:46;;;;;;;8.00;6.13;;;3.00;99.90;;;;;;5092600;28;20031;-77
2021/03/23 00:13:12;;;;;;;6.65;5.53;;;3.00;99.90;;;;;;5092669;28;20379;-76
2021/03/23 00:15:38;;;;;;;7.43;6.15;;;3.00;99.90;;;;;;5092861;28;20028;-78
2021/03/23 00:18:07;;;;;;;8.20;6.50;;;3.00;99.90;;;;;;5093329;28;20052;-75
2021/03/23 00:20:33;;;;;;;7.70;6.35;;;3.10;99.90;;;;;;5093110;28;20036;-76
2021/03/23 00:22:59;;;;;;;8.60;6.07;;;3.10;99.90;;;;;;5092934;28;20028;-77
2021/03/23 00:25:25;;;;;;;6.95;6.25;;;3.20;99.90;;;;;;5093261;28;20028;-77
2021/03/23 00:27:50;;;;;;;9.40;6.97;;;3.10;99.90;;;;;;5093197;28;20434;-76
2021/03/23 00:30:17;;;;;;;7.25;6.13;;;3.10;99.90;;;;;;5093157;28;20028;-77
2021/03/23 00:32:43;;;;;;;7.75;6.25;;;3.10;99.90;;;;;;5092563;28;20451;-75
2021/03/23 00:35:09;;;;;;;7.80;6.50;;;3.10;99.90;;;;;;5092882;28;20047;-75
2021/03/23 00:37:36;;;;;;;7.00;5.88;;;3.10;99.90;;;;;;5092376;28;20016;-77
2021/03/23 00:40:04;;;;;;;8.18;6.65;;;3.10;99.90;;;;;;5092670;28;20097;-76
2021/03/23 00:42:30;;;;;;;8.02;6.35;;;3.10;99.90;;;;;;5092766;28;20536;-76
2021/03/23 00:44:56;;;;;;;8.55;6.95;;;3.20;99.90;;;;;;5092826;28;20028;-75
2021/03/23 00:47:21;;;;;;;7.53;6.10;;;3.00;99.90;;;;;;5092499;28;20115;-76
2021/03/23 00:49:47;;;;;;;7.45;6.40;;;3.00;99.90;;;;;;5092532;28;20031;-76
2021/03/23 00:52:13;;;;;;;7.63;5.97;;;3.00;99.90;;;;;;5091904;28;20060;-77
2021/03/23 00:54:39;;;;;;;7.53;6.53;;;3.10;99.90;;;;;;5091732;28;20034;-76
2021/03/23 00:57:05;;;;;;;7.43;6.15;;;3.10;99.90;;;;;;5091998;28;20032;-75
2021/03/23 00:59:30;;;;;;;6.95;6.25;;;3.00;99.90;;;;;;5092321;28;20433;-75
2021/03/23 01:01:56;;;;;;;6.22;5.57;;;2.90;99.90;;;;;;5092065;28;20467;-76
2021/03/23 01:04:22;;;;;;;7.35;5.85;;;2.90;99.90;;;;;;5092754;28;20119;-75
2021/03/23 01:06:48;;;;;;;6.22;5.20;;;3.00;99.90;;;;;;5091976;28;20040;-75
2021/03/23 01:09:14;;;;;;;6.55;5.88;;;2.90;99.90;;;;;;5092055;28;20114;-78
2021/03/23 01:11:39;;;;;;;9.07;6.75;;;2.90;99.90;;;;;;5091965;28;20035;-75
2021/03/23 01:14:06;;;;;;;8.18;6.47;;;2.90;99.90;;;;;;5092463;28;20020;-75
2021/03/23 01:16:32;;;;;;;7.30;6.10;;;3.00;99.90;;;;;;5092068;28;20093;-76
2021/03/23 01:18:57;;;;;;;7.07;6.03;;;3.00;99.90;;;;;;5091404;28;20024;-75
2021/03/23 01:21:23;;;;;;;8.05;5.60;;;2.90;99.90;;;;;;5092064;28;20043;-76
2021/03/23 01:23:49;;;;;;;6.90;6.00;;;2.90;99.90;;;;;;5091705;28;20012;-75
2021/03/23 01:26:15;;;;;;;8.30;6.65;;;2.90;99.90;;;;;;5091037;28;20059;-75
2021/03/23 01:28:40;;;;;;;7.63;6.30;;;3.10;99.90;;;;;;5091934;28;20403;-76
2021/03/23 01:31:06;;;;;;;7.35;6.05;;;3.00;99.90;;;;;;5092085;28;20024;-74
2021/03/23 01:33:32;;;;;;;6.97;5.85;;;2.90;99.90;;;;;;5091349;28;20391;-74
2021/03/23 01:35:58;;;;;;;9.35;6.40;;;2.90;99.90;;;;;;5091854;28;20123;-75
2021/03/23 01:38:23;;;;;;;7.50;6.32;;;3.00;99.90;;;;;;5091094;28;20028;-76
2021/03/23 01:40:49;;;;;;;9.27;7.28;;;3.00;99.90;;;;;;5091247;28;20051;-75
2021/03/23 01:43:28;;;;;;;8.50;6.50;;;2.90;99.90;;;;;;5091545;28;20107;-74
2021/03/23 01:45:57;;;;;;;6.80;6.10;;;2.90;99.90;;;;;;5091502;28;20023;-75
2021/03/23 01:48:34;;;;;;;7.32;6.03;;;2.90;99.90;;;;;;5091413;28;20039;-76
2021/03/23 01:51:06;;;;;;;7.55;6.68;;;2.90;99.90;;;;;;5091408;28;20414;-74
2021/03/23 01:53:42;;;;;;;8.43;6.93;;;2.90;99.90;;;;;;5091429;28;20020;-75
2021/03/23 01:56:10;;;;;;;8.07;7.20;;;2.90;99.90;;;;;;5091633;28;20088;-74
2021/03/23 01:58:39;;;;;;;7.78;6.07;;;2.90;99.90;;;;;;5091487;28;20020;-75
2021/03/23 02:01:08;;;;;;;9.27;7.43;;;2.90;99.90;;;;;;5091533;28;20039;-74
2021/03/23 02:03:35;;;;;;;8.02;7.22;;;3.00;99.90;;;;;;5091877;28;20031;-76
2021/03/23 02:06:01;;;;;;;7.82;6.82;;;3.10;99.90;;;;;;5091782;28;20083;-75
2021/03/23 02:08:28;;;;;;;9.00;7.95;;;3.00;99.90;;;;;;5091162;28;20502;-74
2021/03/23 02:10:55;;;;;;;8.05;7.15;;;3.00;99.90;;;;;;5091682;28;20127;-75
2021/03/23 02:13:22;;;;;;;8.63;7.65;;;3.10;99.90;;;;;;5091501;28;20024;-74
2021/03/23 02:15:48;;;;;;;8.98;7.85;;;3.00;99.90;;;;;;5091417;28;20063;-75
2021/03/23 02:18:14;;;;;;;8.85;6.85;;;3.00;99.90;;;;;;5091550;28;20059;-75
2021/03/23 02:20:56;;;;;;;8.27;7.07;;;3.00;99.90;;;;;;5091787;28;20119;-76
2021/03/23 02:23:26;;;;;;;9.48;6.95;;;2.90;99.90;;;;;;5091624;28;20028;-74
2021/03/23 02:25:51;;;;;;;8.38;7.13;;;2.90;99.90;;;;;;5091709;28;20023;-74
2021/03/23 02:28:18;;;;;;;9.85;7.50;;;2.90;99.90;;;;;;5090893;28;20375;-74
2021/03/23 02:30:46;;;;;;;8.68;7.30;;;2.80;99.90;;;;;;5073394;28;20025;-75
2021/03/23 02:33:12;;;;;;;9.73;8.02;;;2.80;99.90;;;;;;5091219;28;20028;-75
2021/03/23 02:35:38;;;;;;;8.75;7.25;;;2.90;99.90;;;;;;5090869;28;20379;-75
2021/03/23 02:38:04;;;;;;;9.63;8.30;;;2.80;99.90;;;;;;5094399;28;20024;-74
2021/03/23 02:40:31;;;;;;;8.93;7.35;;;2.90;99.90;;;;;;5076716;28;20581;-76
2021/03/23 02:42:57;;;;;;;8.90;7.78;;;2.80;99.90;;;;;;5094592;28;20020;-75
2021/03/23 02:45:24;;;;;;;12.73;7.72;;;2.90;99.90;;;;;;5094859;28;20022;-75
2021/03/23 02:47:50;;;;;;;10.88;7.70;;;2.80;99.90;;;;;;5076211;28;20503;-75
2021/03/23 02:50:17;;;;;;;8.88;6.95;;;2.80;99.90;;;;;;5094507;28;20035;-74
2021/03/23 02:52:43;;;;;;;10.75;8.52;;;2.80;99.90;;;;;;5094423;28;20366;-75
2021/03/23 02:55:09;;;;;;;9.60;8.57;;;2.90;99.90;;;;;;5094485;28;20038;-74
2021/03/23 02:57:35;;;;;;;9.60;7.63;;;2.80;99.90;;;;;;5094484;28;20020;-77
2021/03/23 03:00:01;;;;;;;11.65;8.10;;;2.80;99.90;;;;;;5094421;28;20035;-75
2021/03/23 03:02:27;;;;;;;9.75;7.90;;;2.80;99.90;;;;;;5094624;28;20024;-74
2021/03/23 03:04:52;;;;;;;8.90;7.63;;;2.80;99.90;;;;;;5094008;28;20391;-74
2021/03/23 03:07:18;;;;;;;9.68;7.43;;;2.80;99.90;;;;;;5094516;28;20100;-76
2021/03/23 03:09:44;;;;;;;7.93;6.57;;;2.80;99.90;;;;;;5094295;28;20020;-73
2021/03/23 03:12:10;;;;;;;9.73;7.82;;;2.80;99.90;;;;;;5094386;28;20038;-75
2021/03/23 03:14:36;;;;;;;8.10;6.38;;;2.80;99.90;;;;;;5093951;28;20430;-74
2021/03/23 03:17:01;;;;;;;8.60;7.18;;;2.80;99.90;;;;;;5093943;28;20484;-75
2021/03/23 03:19:27;;;;;;;9.13;7.05;;;2.80;99.90;;;;;;5093901;28;20464;-75
2021/03/23 03:21:53;;;;;;;8.50;7.15;;;2.80;99.90;;;;;;5094318;28;20060;-74
2021/03/23 03:24:19;;;;;;;11.13;7.80;;;2.70;99.90;;;;;;5094064;28;20028;-76
2021/03/23 03:26:44;;;;;;;7.63;6.50;;;2.80;99.90;;;;;;5094185;28;20055;-74
2021/03/23 03:29:10;;;;;;;12.10;8.05;;;2.80;99.90;;;;;;5093991;28;20066;-75
2021/03/23 03:31:36;;;;;;;8.13;6.18;;;2.80;99.90;;;;;;5094066;28;20054;-74
2021/03/23 03:34:03;;;;;;;9.98;7.70;;;2.80;99.90;;;;;;5093431;28;20058;-74
2021/03/23 03:36:31;;;;;;;10.50;7.97;;;2.80;99.90;;;;;;5093581;28;20039;-75
2021/03/23 03:38:57;;;;;;;9.00;7.28;;;2.90;99.90;;;;;;5093599;28;20378;-75
2021/03/23 03:41:24;;;;;;;10.27;7.95;;;2.80;99.90;;;;;;5093978;28;20065;-74
2021/03/23 03:43:50;;;;;;;8.13;7.32;;;2.80;99.90;;;;;;5075698;28;20097;-74
2021/03/23 03:46:16;;;;;;;9.50;7.22;;;2.80;99.90;;;;;;5093668;28;20028;-74
2021/03/23 03:48:42;;;;;;;8.63;7.00;;;2.80;99.90;;;;;;5092355;28;20058;-77
2021/03/23 03:51:08;;;;;;;9.88;7.80;;;2.80;99.90;;;;;;5093498;28;20066;-75
2021/03/23 03:53:34;;;;;;;10.50;7.82;;;2.80;99.90;;;;;;5093406;28;20032;-75
2021/03/23 03:56:00;;;;;;;8.98;7.00;;;2.80;99.90;;;;;;5075700;28;20036;-75
2021/03/23 03:58:26;;;;;;;10.07;8.30;;;2.90;99.90;;;;;;5093496;28;20104;-74
2021/03/23 04:00:53;;;;;;;9.73;7.80;;;2.90;99.90;;;;;;5093172;28;20063;-74
2021/03/23 04:03:24;;;;;;;10.38;7.60;;;2.90;99.90;;;;;;5093295;28;20038;-75
2021/03/23 04:05:51;;;;;;;9.68;7.38;;;2.90;99.90;;;;;;5093538;28;20067;-75
2021/03/23 04:08:21;;;;;;;9.27;7.28;;;2.90;99.90;;;;;;5093251;28;20024;-75
2021/03/23 04:10:51;;;;;;;9.33;6.40;;;2.80;99.90;;;;;;5093517;28;20403;-77
2021/03/23 04:13:18;;;;;;;10.25;7.68;;;2.80;99.90;;;;;;5093316;28;20016;-77
2021/03/23 04:15:45;;;;;;;10.85;7.97;;;3.00;99.90;;;;;;5092746;28;20072;-75
2021/03/23 04:18:13;;;;;;;11.55;7.82;;;2.80;99.90;;;;;;5092802;28;20117;-75
2021/03/23 04:20:40;;;;;;;9.25;7.50;;;2.80;99.90;;;;;;5092848;28;20036;-75
2021/03/23 04:23:07;;;;;;;8.52;7.07;;;2.80;99.90;;;;;;5093025;28;20024;-73
2021/03/23 04:25:34;;;;;;;9.38;7.50;;;2.80;99.90;;;;;;5093121;28;20024;-76
2021/03/23 04:28:00;;;;;;;7.63;6.82;;;2.80;99.90;;;;;;5092875;28;20044;-74
2021/03/23 04:30:27;;;;;;;8.35;6.07;;;2.80;99.90;;;;;;5092346;28;20050;-74
2021/03/23 04:32:55;;;;;;;8.43;6.10;;;2.80;99.90;;;;;;5092869;28;20497;-76
2021/03/23 04:35:27;;;;;;;8.13;6.38;;;2.70;99.90;;;;;;5092655;28;20086;-73
2021/03/23 04:37:54;;;;;;;9.00;6.35;;;2.70;99.90;;;;;;5092817;28;20016;-74
2021/03/23 04:40:20;;;;;;;8.27;6.82;;;2.70;99.90;;;;;;5092608;28;20024;-73
2021/03/23 04:42:46;;;;;;;8.77;6.72;;;2.70;99.90;;;;;;5092947;28;20379;-74
2021/03/23 04:45:12;;;;;;;8.00;5.97;;;2.70;99.90;;;;;;5092231;28;20378;-74
2021/03/23 04:47:38;;;;;;;8.20;6.45;;;2.70;99.90;;;;;;5092514;28;20035;-74
2021/03/23 04:50:04;;;;;;;9.80;7.10;;;2.60;99.90;;;;;;5092064;28;20020;-73
2021/03/23 04:52:30;;;;;;;7.28;6.35;;;2.60;99.90;;;;;;5091882;28;20059;-74
2021/03/23 04:54:56;;;;;;;7.38;6.57;;;2.60;99.90;;;;;;5092200;28;20076;-73
2021/03/23 04:57:21;;;;;;;8.75;6.40;;;2.50;99.90;;;;;;5092673;28;20016;-74
2021/03/23 04:59:47;;;;;;;8.32;6.57;;;2.50;99.90;;;;;;5091698;28;20058;-75
2021/03/23 05:02:13;;;;;;;8.57;6.45;;;2.50;99.90;;;;;;5092261;28;20025;-74
2021/03/23 05:04:38;;;;;;;11.13;6.00;;;2.40;99.90;;;;;;5092165;28;20024;-74
2021/03/23 05:07:04;;;;;;;8.38;6.93;;;2.40;99.90;;;;;;5092615;28;20028;-73
2021/03/23 05:09:30;;;;;;;7.75;6.03;;;2.40;99.90;;;;;;5092160;28;20107;-74
2021/03/23 05:11:56;;;;;;;9.48;6.85;;;2.30;99.90;;;;;;5092015;28;20016;-76
2021/03/23 05:14:22;;;;;;;8.90;6.05;;;2.30;99.90;;;;;;5073316;28;20024;-74
2021/03/23 05:16:48;;;;;;;6.18;4.97;;;2.20;99.90;;;;;;5091533;28;20028;-75
2021/03/23 05:19:13;;;;;;;8.05;5.93;;;2.20;99.90;;;;;;5092125;28;20035;-75
2021/03/23 05:21:39;;;;;;;9.63;7.30;;;2.20;99.90;;;;;;5092408;28;20419;-73
2021/03/23 05:24:05;;;;;;;8.48;6.95;;;2.20;99.90;;;;;;5091990;28;20031;-74
2021/03/23 05:26:31;;;;;;;8.32;6.13;;;2.20;99.90;;;;;;5091730;28;20043;-75
2021/03/23 05:28:57;;;;;;;8.68;6.82;;;2.10;99.90;;;;;;5074103;28;20371;-74
2021/03/23 05:31:24;;;;;;;7.35;6.28;;;2.20;99.90;;;;;;5091712;28;20044;-75
2021/03/23 05:33:54;;;;;;;8.60;6.43;;;2.10;99.90;;;;;;5091949;28;20051;-73
2021/03/23 05:36:20;;;;;;;7.72;6.15;;;2.10;99.90;;;;;;5092111;28;20070;-74
2021/03/23 05:38:46;;;;;;;9.40;6.40;;;2.10;99.90;;;;;;5073695;28;20028;-75
2021/03/23 05:41:49;;;;;;;7.50;6.22;;;2.20;99.90;;;;;;5092125;28;20043;-75
2021/03/23 05:44:45;;;;;;;8.25;6.30;;;2.10;99.90;;;;;;5091695;28;20060;-75
2021/03/23 05:47:13;;;;;;;10.68;6.65;;;2.20;99.90;;;;;;5091740;28;20020;-75
2021/03/23 05:49:54;;;;;;;8.43;6.68;;;2.20;99.90;;;;;;5091662;28;20052;-78
2021/03/23 05:52:29;;;;;;;11.93;6.28;;;2.20;99.90;;;;;;5091364;28;20044;-73
2021/03/23 05:55:19;;;;;;;7.75;6.07;;;2.20;99.90;;;;;;5091401;28;20051;-75
2021/03/23 05:57:48;;;;;;;13.48;6.70;;;2.20;99.90;;;;;;5091395;28;20085;-76
2021/03/23 06:00:27;;;;;;;8.85;6.97;;;2.30;99.90;;;;;;5091328;28;20027;-76
2021/03/23 06:03:24;;;;;;;6.45;5.63;;;2.20;99.90;;;;;;5070848;28;20070;-75
2021/03/23 06:05:58;;;;;;;7.03;5.38;;;2.10;99.90;;;;;;5060299;28;20493;-76
2021/03/23 06:08:28;;;;;;;7.70;5.85;;;2.20;99.90;;;;;;5091771;28;20016;-76
2021/03/23 06:11:05;;;;;;;7.05;5.65;;;2.20;99.90;;;;;;5091045;28;20024;-76
2021/03/23 06:13:32;;;;;;;6.70;5.45;;;2.20;99.90;;;;;;5076340;28;20360;-75
2021/03/23 06:16:11;;;;;;;6.80;5.70;;;2.20;99.90;;;;;;5089017;28;20032;-75
2021/03/23 06:18:40;;;;;;;5.97;4.85;;;2.10;99.90;;;;;;5094765;28;20040;-76
2021/03/23 06:21:20;;;;;;;10.20;6.97;;;2.10;99.90;;;;;;5094832;28;20062;-74
2021/03/23 06:23:52;;;;;;;;;;;2.40;99.90;;;;;;5095379;28;20016;-77
2021/03/23 06:26:31;;;;;;;8.32;5.90;;;2.40;99.90;;;;;;5093957;28;19953;-75
2021/03/23 06:29:10;;;;;;;13.57;7.03;;;2.20;99.90;;;;;;5094547;28;20031;-75
2021/03/23 06:32:03;;;;;;;8.60;6.50;;;2.20;99.90;;;;;;5094480;28;20028;-76
2021/03/23 06:34:33;;;;;;;11.65;7.32;;;2.20;99.90;;;;;;5092942;28;20499;-74
2021/03/23 06:36:59;;;;;;;7.80;5.20;;;2.30;99.90;;;;;;5095003;28;20040;-74
2021/03/23 06:39:29;;;;;;;9.75;6.93;;;2.20;99.90;;;;;;5094737;28;20379;-74
2021/03/23 06:42:01;;;;;;;8.35;5.78;;;2.20;99.90;;;;;;5093839;28;20024;-74
2021/03/23 06:44:30;;;;;;;7.10;5.70;;;2.20;99.90;;;;;;5092913;28;20093;-74
2021/03/23 06:46:57;;;;;;;8.50;5.80;;;2.20;99.90;;;;;;5093700;28;20028;-74
2021/03/23 06:49:35;;;;;;;9.75;6.78;;;2.10;99.90;;;;;;5093888;28;20020;-75
2021/03/23 06:52:20;;;;;;;12.95;7.20;;;2.30;99.90;;;;;;5093800;28;20414;-75
2021/03/23 06:55:24;;;;;;;11.98;6.88;;;2.20;99.90;;;;;;5094167;28;20030;-75
2021/03/23 06:57:50;;;;;;;6.57;5.15;;;2.30;99.90;;;;;;5093206;28;20108;-75
2021/03/23 07:00:23;;;;;;;8.50;6.75;;;2.20;99.90;;;;;;5093704;28;20375;-76
2021/03/23 07:02:55;;;;;;;12.20;7.13;;;2.30;99.90;;;;;;5089691;28;20039;-75
2021/03/23 07:05:35;;;;;;;8.93;6.95;;;2.40;99.90;;;;;;5102594;28;20024;-75
2021/03/23 07:08:11;;;;;;;7.90;6.20;;;2.40;99.90;;;;;;5106163;28;20413;-75
2021/03/23 07:10:43;;;;;;;9.25;7.03;;;2.50;99.90;;;;;;5093760;28;20016;-77
2021/03/23 07:13:28;;;;;;;11.65;7.22;;;2.80;99.90;;;;;;5075743;28;20379;-76
2021/03/23 07:16:02;;;;;;;8.10;6.32;;;2.50;99.90;;;;;;5093745;28;20035;-76
2021/03/23 07:18:30;;;;;;;8.85;6.97;;;2.60;99.90;;;;;;5072947;28;20550;-76
2021/03/23 07:21:04;;;;;;;7.88;6.03;;;2.60;99.90;;;;;;5068201;28;20036;-77
2021/03/23 07:23:34;;;;;;;10.80;6.70;;;2.50;99.90;;;;;;5091817;28;20032;-78
2021/03/23 07:26:28;;;;;;;9.60;6.20;;;2.60;99.90;;;;;;5091522;28;20039;-74
2021/03/23 07:29:21;;;;;;;11.07;6.68;;;2.60;99.90;;;;;;5091948;28;20352;-75
2021/03/23 07:32:12;;;;;;;8.43;6.43;;;2.70;99.90;;;;;;5096383;28;20023;-75
2021/03/23 07:35:05;;;;;;;7.78;5.45;;;2.70;99.90;;;;;;5113151;28;20027;-75
2021/03/23 07:37:41;;;;;;;10.32;7.63;;;2.70;99.90;;;;;;5113431;28;20107;-75
2021/03/23 07:40:33;;;;;;;8.52;6.80;;;2.70;99.90;;;;;;5113869;28;20015;-75
2021/03/23 07:43:17;;;;;;;9.73;6.90;;;2.80;99.90;;;;;;5113291;28;20467;-74
2021/03/23 07:46:07;;;;;;;11.15;7.18;;;2.80;99.90;;;;;;5095246;28;20020;-76
2021/03/23 07:48:56;;;;;;;10.10;7.05;;;2.80;99.90;;;;;;5073128;28;20047;-76
2021/03/23 07:51:35;;;;;;;11.88;6.85;;;2.80;99.90;;;;;;5073646;28;20082;-77
2021/03/23 07:54:23;;;;;;;12.55;6.47;;;2.80;99.90;;;;;;5093032;28;20538;-74
2021/03/23 07:56:58;;;;;;;11.27;7.60;;;2.90;99.90;;;;;;5092647;28;20429;-76
2021/03/23 07:59:42;;;;;;;12.98;7.55;;;2.90;99.90;;;;;;5093107;28;20016;-77
2021/03/23 08:03:00;;;;;;;7.63;6.05;;;3.00;99.90;;;;;;5092386;28;20521;-75
2021/03/23 08:05:38;;;;;;;8.10;6.32;;;2.90;99.90;;;;;;5035370;28;20426;-77
2021/03/23 08:08:37;;;;;;;10.13;6.30;;;3.10;99.90;;;;;;5092728;28;20055;-75
2021/03/23 08:11:29;;;;;;;7.35;6.43;;;3.20;99.90;;;;;;5074656;28;20115;-78
2021/03/23 08:14:08;;;;;;;10.48;7.15;;;3.10;99.90;;;;;;5092604;28;20096;-74
2021/03/23 08:16:58;;;;;;;9.85;7.10;;;3.00;99.90;;;;;;5073989;28;20475;-76
2021/03/23 08:19:54;;;;;;;8.75;5.90;;;3.30;99.90;;;;;;5092724;28;20054;-76
2021/03/23 08:22:41;;;;;;;7.80;5.85;;;3.40;99.90;;;;;;5092313;28;20379;-75
2021/03/23 08:25:30;;;;;;;9.73;6.18;;;3.20;99.90;;;;;;5092015;28;20401;-77
2021/03/23 08:28:12;;;;;;;7.40;5.93;;;3.10;99.90;;;;;;5079118;28;20066;-76
2021/03/23 08:31:00;;;;;;;10.73;7.13;;;3.10;99.90;;;;;;5092318;28;20073;-76
2021/03/23 08:34:03;;;;;;;8.40;6.18;;;3.50;99.90;;;;;;5071870;28;20017;-77
2021/03/23 08:36:44;;;;;;;7.45;5.68;;;3.20;99.90;;;;;;5071790;28;20116;-75
2021/03/23 08:39:27;;;;;;;10.27;7.30;;;3.30;99.90;;;;;;5090232;28;20024;-75
2021/03/23 08:42:03;;;;;;;9.73;6.65;;;3.40;99.90;;;;;;5091073;28;20091;-76
2021/03/23 08:44:32;;;;;;;8.35;5.97;;;3.60;99.90;;;;;;5090308;28;20104;-75
2021/03/23 08:47:08;;;;;;;7.95;6.35;;;3.50;99.90;;;;;;5091810;28;20375;-78
2021/03/23 08:49:34;;;;;;;11.20;7.15;;;3.50;99.90;;;;;;5092120;28;20032;-75
2021/03/23 08:51:59;;;;;;;9.02;6.38;;;4.00;99.90;;;;;;5091960;28;20044;-77
2021/03/23 08:54:46;;;;;;;10.07;7.15;;;4.00;99.90;;;;;;5091891;28;20379;-76
2021/03/23 08:57:12;;;;;;;8.40;5.68;;;4.00;99.90;;;;;;5091945;28;20067;-77
2021/03/23 08:59:38;;;;;;;10.30;7.07;;;3.90;99.90;;;;;;5091519;28;20365;-75
2021/03/23 09:02:09;;;;;;;9.77;6.90;;;4.00;99.90;;;;;;5091126;28;20027;-77
2021/03/23 09:04:42;;;;;;;10.13;6.78;;;4.50;99.90;;;;;;5091630;28;20057;-76
2021/03/23 09:07:07;;;;;;;12.88;7.13;;;4.50;99.90;;;;;;5092080;28;20475;-77
2021/03/23 09:09:43;;;;;;;11.30;6.95;;;4.40;99.90;;;;;;5091715;28;20035;-76
2021/03/23 09:12:27;;;;;;;8.52;6.50;;;4.80;99.90;;;;;;5091835;28;20106;-77
2021/03/23 09:15:19;;;;;;;6.95;6.18;;;4.70;99.90;;;;;;5091285;28;20027;-78
2021/03/23 09:18:05;;;;;;;8.63;5.85;;;4.60;99.60;;;;;;5091132;28;20055;-76
2021/03/23 09:20:34;;;;;;;9.65;6.63;;;4.60;99.90;;;;;;5073045;28;20081;-76
2021/03/23 09:23:18;;;;;;;10.68;6.47;;;4.50;98.70;;;;;;5091290;28;20032;-77
2021/03/23 09:25:57;;;;;;;9.50;6.13;;;4.50;98.60;;;;;;5091183;28;20049;-76
2021/03/23 09:28:32;;;;;;;9.90;6.60;;;4.80;98.70;;;;;;5091218;28;20013;-76
2021/03/23 09:30:59;;;;;;;9.15;6.20;;;5.10;96.70;;;;;;5090916;28;20066;-77
2021/03/23 09:33:25;;;;;;;10.88;6.68;;;5.00;97.10;;;;;;5073147;28;20031;-75
2021/03/23 09:36:17;;;;;;;8.02;5.40;;;5.00;97.30;;;;;;5091342;28;20044;-76
2021/03/23 09:38:51;;;;;;;9.23;6.35;;;5.10;96.60;;;;;;5051766;28;20032;-76
2021/03/23 09:41:23;;;;;;;10.55;6.50;;;5.40;95.20;;;;;;5086830;28;20021;-77
2021/03/23 09:44:05;;;;;;;7.30;5.65;;;5.90;95.90;;;;;;5085779;28;20024;-75
2021/03/23 09:46:48;;;;;;;10.10;6.28;;;5.80;96.00;;;;;;5086062;28;20547;-76
2021/03/23 09:49:20;;;;;;;8.70;6.13;;;5.90;95.60;;;;;;5093931;28;20532;-76
2021/03/23 09:51:54;;;;;;;9.70;6.68;;;6.30;93.90;;;;;;5093816;28;20422;-77
2021/03/23 09:54:22;;;;;;;7.72;5.55;;;6.30;92.50;;;;;;5094073;28;20026;-77
2021/03/23 09:56:49;;;;;;;9.15;6.00;;;5.70;92.10;;;;;;5093714;28;20059;-77
2021/03/23 09:59:21;;;;;;;6.93;5.35;;;5.40;92.60;;;;;;5093632;28;20059;-76
2021/03/23 10:02:02;;;;;;;11.73;6.82;;;5.40;95.30;;;;;;5093118;28;20032;-76
2021/03/23 10:04:38;;;;;;;8.10;6.35;;;6.10;92.60;;;;;;5093396;28;20106;-77
2021/03/23 10:07:07;;;;;;;8.07;6.38;;;5.90;91.90;;;;;;5095219;28;20058;-77
2021/03/23 10:09:35;;;;;;;8.75;6.00;;;6.90;88.50;;;;;;5095125;28;20662;-77
2021/03/23 10:12:03;;;;;;;7.40;5.53;;;7.60;86.70;;;;;;5095084;28;20521;-75
2021/03/23 10:14:28;;;;;;;7.47;5.63;;;6.60;83.60;;;;;;5094441;28;20071;-76
2021/03/23 10:17:10;;;;;;;12.63;6.85;;;7.10;84.30;;;;;;5094318;28;20115;-75
2021/03/23 10:19:43;;;;;;;9.25;6.40;;;7.50;81.30;;;;;;5094380;28;20063;-76
2021/03/23 10:22:14;;;;;;;10.60;6.13;;;6.80;86.90;;;;;;5095178;28;20028;-76
2021/03/23 10:24:42;;;;;;;9.52;5.65;;;8.00;81.90;;;;;;5094569;28;20028;-77
2021/03/23 10:27:26;;;;;;;11.23;5.35;;;6.60;82.20;;;;;;5094551;28;20059;-77
2021/03/23 10:30:05;;;;;;;7.68;6.00;;;6.60;82.90;;;;;;5094447;28;20023;-77
2021/03/23 10:32:37;;;;;;;6.57;4.90;;;7.10;81.40;;;;;;5092198;28;20026;-76
2021/03/23 10:35:25;;;;;;;6.95;5.97;;;6.40;83.80;;;;;;5084442;28;20028;-76
2021/03/23 10:38:24;;;;;;;7.55;5.85;;;6.20;84.90;;;;;;5093288;28;20093;-76
2021/03/23 10:41:16;;;;;;;11.05;6.15;;;6.20;84.10;;;;;;5093369;28;20035;-76
2021/03/23 10:43:42;;;;;;;9.73;6.60;;;6.10;88.00;;;;;;5086700;28;20437;-75
2021/03/23 10:46:26;;;;;;;8.73;5.43;;;6.10;88.40;;;;;;5093182;28;20028;-77
2021/03/23 10:48:52;;;;;;;9.70;6.70;;;5.50;86.50;;;;;;5091516;28;20016;-77
2021/03/23 10:51:21;;;;;;;9.52;7.13;;;6.10;89.30;;;;;;5092348;28;20087;-78
2021/03/23 10:54:30;;;;;;;6.90;5.10;;;6.30;87.40;;;;;;5072384;28;20020;-77
2021/03/23 10:56:59;;;;;;;9.13;6.40;;;6.00;89.10;;;;;;5009824;28;20030;-77
2021/03/23 10:59:28;;;;;;;8.75;5.32;;;6.10;89.30;;;;;;5010113;28;20068;-78
2021/03/23 11:02:13;;;;;;;7.20;5.47;;;6.10;89.10;;;;;;5054352;28;20074;-78
2021/03/23 11:04:56;;;;;;;19.33;5.63;;;6.70;82.00;;;;;;5075189;28;20077;-77
2021/03/23 11:07:25;;;;;;;10.20;6.65;;;6.70;81.90;;;;;;5090809;28;20049;-77
2021/03/23 11:09:52;;;;;;;8.57;5.93;;;6.50;83.30;;;;;;5092402;28;20020;-78
2021/03/23 11:12:18;;;;;;;6.80;5.32;;;7.60;80.90;;;;;;5091772;28;20043;-78
2021/03/23 11:14:44;;;;;;;9.52;6.60;;;7.50;78.50;;;;;;5092309;28;20020;-78
2021/03/23 11:17:13;;;;;;;8.98;6.53;;;8.60;74.30;;;;;;5092592;28;20047;-76
2021/03/23 11:19:43;;;;;;;7.95;5.30;;;9.30;73.20;;;;;;5074378;28;20411;-76
2021/03/23 11:22:12;;;;;;;8.40;5.88;;;8.50;76.00;;;;;;5092342;28;20032;-78
2021/03/23 11:24:39;;;;;;;10.13;5.97;;;9.50;70.10;;;;;;5092355;28;20032;-78
2021/03/23 11:27:05;;;;;;;7.88;5.70;;;9.00;70.50;;;;;;5088406;28;20020;-76
2021/03/23 11:29:31;;;;;;;8.23;5.97;;;8.40;68.80;;;;;;5092152;28;20032;-77
2021/03/23 11:31:56;;;;;;;7.40;6.00;;;9.10;69.60;;;;;;5089006;28;20024;-78
2021/03/23 11:34:23;;;;;;;8.02;5.68;;;8.80;68.30;;;;;;5091468;28;20450;-75
2021/03/23 11:36:50;;;;;;;12.43;6.05;;;9.00;67.70;;;;;;5089008;28;20520;-76
2021/03/23 11:39:17;;;;;;;6.68;5.53;;;8.80;68.80;;;;;;5089794;28;20062;-77
2021/03/23 11:42:05;;;;;;;7.78;5.85;;;9.00;66.40;;;;;;5087826;28;20024;-77
2021/03/23 11:44:40;;;;;;;10.40;6.63;;;8.20;67.80;;;;;;5091231;28;20050;-77
2021/03/23 11:47:28;;;;;;;8.55;5.68;;;8.70;67.60;;;;;;5069038;28;20077;-77
2021/03/23 11:50:20;;;;;;;8.20;6.07;;;8.70;67.20;;;;;;5088972;28;20413;-76
2021/03/23 11:52:47;;;;;;;7.10;5.68;;;8.40;68.70;;;;;;5092845;28;20044;-77
2021/03/23 11:55:18;;;;;;;7.72;5.85;;;8.40;70.20;;;;;;5093016;28;20016;-77
2021/03/23 11:57:44;;;;;;;9.13;6.22;;;8.80;68.70;;;;;;5091806;28;20398;-74
2021/03/23 12:00:13;;;;;;;7.07;5.20;;;7.30;75.50;;;;;;5086304;28;20024;-76
2021/03/23 12:02:39;;;;;;;7.95;6.10;;;6.60;76.80;;;;;;5092334;28;20026;-77
2021/03/23 12:05:07;;;;;;;7.53;5.80;;;7.00;80.50;;;;;;5092516;28;20016;-79
2021/03/23 12:08:05;;;;;;;6.22;5.43;;;7.60;75.50;;;;;;5092598;28;20024;-78
2021/03/23 12:11:04;;;;;;;7.60;5.75;;;7.10;75.30;;;;;;5091891;28;20105;-77
2021/03/23 12:14:02;;;;;;;6.47;5.45;;;8.00;75.30;;;;;;5092477;28;20024;-77
2021/03/23 12:16:47;;;;;;;6.93;5.50;;;6.50;82.80;;;;;;5092416;28;20584;-78
2021/03/23 12:19:15;;;;;;;6.78;4.60;;;6.50;83.90;;;;;;5092482;28;20050;-75
2021/03/23 12:21:41;;;;;;;6.93;5.38;;;6.20;82.30;;;;;;5092656;28;20066;-77
2021/03/23 12:24:08;;;;;;;9.48;6.20;;;6.40;82.00;;;;;;5092167;28;20547;-77
2021/03/23 12:26:34;;;;;;;7.85;5.70;;;6.80;87.20;;;;;;5092203;28;20078;-76
2021/03/23 12:29:00;;;;;;;7.75;5.70;;;7.00;84.90;;;;;;5092185;28;20066;-77
2021/03/23 12:31:26;;;;;;;7.00;5.57;;;7.20;84.20;;;;;;5091553;28;20032;-77
2021/03/23 12:33:53;;;;;;;6.25;5.18;;;7.20;79.60;;;;;;5073787;28;20103;-77
2021/03/23 12:36:19;;;;;;;7.47;5.30;;;6.50;83.50;;;;;;5092062;28;20051;-76
2021/03/23 12:38:49;;;;;;;9.73;6.30;;;6.40;87.30;;;;;;5091867;28;20494;-78
2021/03/23 12:41:22;;;;;;;8.15;5.70;;;6.70;87.90;;;;;;5091994;28;20028;-78
2021/03/23 12:43:50;;;;;;;9.00;5.55;;;7.40;85.40;;;;;;5091152;28;20868;-76
2021/03/23 12:46:17;;;;;;;7.43;5.35;;;8.10;79.60;;;;;;5090807;28;20069;-77
2021/03/23 12:48:44;;;;;;;6.88;5.30;;;8.40;73.40;;;;;;5091192;28;20020;-77
2021/03/23 12:51:50;;;;;;;8.38;6.05;;;8.40;73.40;;;;;;5091385;28;20119;-77
2021/03/23 12:54:40;;;;;;;7.95;6.00;;;8.20;76.20;;;;;;5089043;28;20032;-76
2021/03/23 12:57:17;;;;;;;8.45;6.32;;;8.20;77.50;;;;;;5087736;28;20509;-76
2021/03/23 12:59:43;;;;;;;8.20;5.80;;;7.70;76.90;;;;;;5089052;28;20465;-76
2021/03/23 13:02:15;;;;;;;7.78;5.88;;;6.80;81.50;;;;;;5090705;28;20024;-76
2021/03/23 13:04:42;;;;;;;6.90;5.55;;;6.80;83.40;;;;;;5091405;28;20027;-77
2021/03/23 13:07:17;;;;;;;6.82;5.55;;;6.50;87.10;;;;;;5072657;28;20024;-75
2021/03/23 13:09:43;;;;;;;10.52;5.93;;;7.20;84.20;;;;;;5091233;28;20070;-77
2021/03/23 13:12:09;;;;;;;7.22;5.72;;;6.90;86.60;;;;;;5073131;28;20024;-75
2021/03/23 13:14:36;;;;;;;8.45;6.07;;;7.20;86.70;;;;;;5088127;28;20016;-76
2021/03/23 13:17:02;;;;;;;7.32;5.75;;;7.60;82.70;;;;;;5064320;28;20119;-76
2021/03/23 13:19:28;;;;;;;5.88;4.95;;;7.50;81.60;;;;;;5072146;28;20017;-75
2021/03/23 13:22:00;;;;;;;8.90;6.18;;;7.50;83.30;;;;;;5070613;28;20039;-74